sensor_id;sensor_type;location;lat;lon;timestamp;P1;durP1;ratioP1;P2;durP2;ratioP2
15258;SDS011;34462;51.368;12.364;2023-10-19T00:01:30;13.97;;;12.27;;
15258;SDS011;34462;51.368;12.364;2023-10-19T00:04:02;13.73;;;12.00;;
15258;SDS011;34462;51.368;12.364;2023-10-19T00:06:30;13.60;;;11.00;;
15258;SDS011;34462;51.368;12.364;2023-10-19T00:08:59;14.37;;;11.77;;
15258;SDS011;34462;51.368;12.364;2023-10-19T00:11:27;12.00;;;10.80;;
15258;SDS011;34462;51.368;12.364;2023-10-19T00:13:54;13.70;;;11.80;;
15258;SDS011;34462;51.368;12.364;2023-10-19T00:16:24;15.27;;;12.20;;
15258;SDS011;34462;51.368;12.364;2023-10-19T00:18:55;13.70;;;12.10;;
15258;SDS011;34462;51.368;12.364;2023-10-19T00:21:28;15.60;;;11.73;;
15258;SDS011;34462;51.368;12.364;2023-10-19T00:23:56;13.23;;;11.33;;
15258;SDS011;34462;51.368;12.364;2023-10-19T00:26:28;13.27;;;11.87;;
15258;SDS011;34462;51.368;12.364;2023-10-19T00:28:56;12.90;;;10.77;;
15258;SDS011;34462;51.368;12.364;2023-10-19T00:31:25;14.60;;;11.97;;
15258;SDS011;34462;51.368;12.364;2023-10-19T00:33:55;13.80;;;11.30;;
15258;SDS011;34462;51.368;12.364;2023-10-19T00:36:23;14.00;;;11.33;;
15258;SDS011;34462;51.368;12.364;2023-10-19T00:38:54;12.53;;;11.23;;
15258;SDS011;34462;51.368;12.364;2023-10-19T00:41:23;12.70;;;11.37;;
15258;SDS011;34462;51.368;12.364;2023-10-19T00:43:56;14.80;;;12.10;;
15258;SDS011;34462;51.368;12.364;2023-10-19T00:46:29;13.23;;;11.83;;
15258;SDS011;34462;51.368;12.364;2023-10-19T00:49:04;13.63;;;11.17;;
15258;SDS011;34462;51.368;12.364;2023-10-19T00:51:34;12.53;;;10.93;;
15258;SDS011;34462;51.368;12.364;2023-10-19T00:54:13;12.50;;;11.10;;
15258;SDS011;34462;51.368;12.364;2023-10-19T00:56:52;13.50;;;11.83;;
15258;SDS011;34462;51.368;12.364;2023-10-19T00:59:25;13.20;;;11.37;;
15258;SDS011;34462;51.368;12.364;2023-10-19T01:01:57;13.13;;;10.73;;
15258;SDS011;34462;51.368;12.364;2023-10-19T01:04:42;13.70;;;11.57;;
15258;SDS011;34462;51.368;12.364;2023-10-19T01:07:17;12.50;;;11.20;;
15258;SDS011;34462;51.368;12.364;2023-10-19T01:09:50;13.73;;;12.10;;
15258;SDS011;34462;51.368;12.364;2023-10-19T01:12:23;13.43;;;11.00;;
15258;SDS011;34462;51.368;12.364;2023-10-19T01:15:05;13.50;;;11.17;;
15258;SDS011;34462;51.368;12.364;2023-10-19T01:17:43;13.27;;;11.40;;
15258;SDS011;34462;51.368;12.364;2023-10-19T01:20:18;13.87;;;11.70;;
15258;SDS011;34462;51.368;12.364;2023-10-19T01:22:51;12.47;;;10.60;;
15258;SDS011;34462;51.368;12.364;2023-10-19T01:25:32;13.53;;;11.63;;
15258;SDS011;34462;51.368;12.364;2023-10-19T01:28:06;14.10;;;11.70;;
15258;SDS011;34462;51.368;12.364;2023-10-19T01:30:36;13.00;;;10.67;;
15258;SDS011;34462;51.368;12.364;2023-10-19T01:33:05;13.10;;;11.20;;
15258;SDS011;34462;51.368;12.364;2023-10-19T01:35:39;12.87;;;10.97;;
15258;SDS011;34462;51.368;12.364;2023-10-19T01:38:27;13.17;;;11.63;;
15258;SDS011;34462;51.368;12.364;2023-10-19T01:40:57;12.47;;;11.17;;
15258;SDS011;34462;51.368;12.364;2023-10-19T01:43:25;13.27;;;11.70;;
15258;SDS011;34462;51.368;12.364;2023-10-19T01:45:57;13.10;;;10.80;;
15258;SDS011;34462;51.368;12.364;2023-10-19T01:48:30;12.53;;;11.23;;
15258;SDS011;34462;51.368;12.364;2023-10-19T01:51:01;12.93;;;11.00;;
15258;SDS011;34462;51.368;12.364;2023-10-19T01:53:32;14.03;;;12.33;;
15258;SDS011;34462;51.368;12.364;2023-10-19T01:56:02;13.43;;;11.97;;
15258;SDS011;34462;51.368;12.364;2023-10-19T01:58:32;13.87;;;12.17;;
15258;SDS011;34462;51.368;12.364;2023-10-19T02:01:03;15.97;;;11.23;;
15258;SDS011;34462;51.368;12.364;2023-10-19T02:03:35;12.50;;;11.03;;
15258;SDS011;34462;51.368;12.364;2023-10-19T02:06:08;12.47;;;11.17;;
15258;SDS011;34462;51.368;12.364;2023-10-19T02:08:46;13.20;;;10.90;;
15258;SDS011;34462;51.368;12.364;2023-10-19T02:11:19;11.90;;;10.70;;
15258;SDS011;34462;51.368;12.364;2023-10-19T02:13:48;12.63;;;11.20;;
15258;SDS011;34462;51.368;12.364;2023-10-19T02:16:19;12.53;;;11.10;;
15258;SDS011;34462;51.368;12.364;2023-10-19T02:18:49;12.93;;;11.63;;
15258;SDS011;34462;51.368;12.364;2023-10-19T02:21:17;13.93;;;11.90;;
15258;SDS011;34462;51.368;12.364;2023-10-19T02:23:50;14.10;;;11.87;;
15258;SDS011;34462;51.368;12.364;2023-10-19T02:26:17;13.10;;;11.67;;
15258;SDS011;34462;51.368;12.364;2023-10-19T02:28:46;14.10;;;11.77;;
15258;SDS011;34462;51.368;12.364;2023-10-19T02:31:16;14.60;;;11.90;;
15258;SDS011;34462;51.368;12.364;2023-10-19T02:33:48;16.07;;;12.90;;
15258;SDS011;34462;51.368;12.364;2023-10-19T02:36:18;14.47;;;12.73;;
15258;SDS011;34462;51.368;12.364;2023-10-19T02:38:47;14.30;;;12.40;;
15258;SDS011;34462;51.368;12.364;2023-10-19T02:41:20;15.00;;;13.10;;
15258;SDS011;34462;51.368;12.364;2023-10-19T02:43:47;15.57;;;12.80;;
15258;SDS011;34462;51.368;12.364;2023-10-19T02:46:27;15.77;;;13.17;;
15258;SDS011;34462;51.368;12.364;2023-10-19T02:48:55;15.23;;;13.27;;
15258;SDS011;34462;51.368;12.364;2023-10-19T02:51:24;16.43;;;12.73;;
15258;SDS011;34462;51.368;12.364;2023-10-19T02:53:52;15.83;;;13.13;;
15258;SDS011;34462;51.368;12.364;2023-10-19T02:56:21;15.80;;;13.10;;
15258;SDS011;34462;51.368;12.364;2023-10-19T02:58:50;16.03;;;13.73;;
15258;SDS011;34462;51.368;12.364;2023-10-19T03:01:20;14.60;;;12.63;;
15258;SDS011;34462;51.368;12.364;2023-10-19T03:03:49;16.67;;;13.90;;
15258;SDS011;34462;51.368;12.364;2023-10-19T03:06:20;15.63;;;13.57;;
15258;SDS011;34462;51.368;12.364;2023-10-19T03:08:48;17.00;;;13.97;;
15258;SDS011;34462;51.368;12.364;2023-10-19T03:11:25;16.20;;;14.10;;
15258;SDS011;34462;51.368;12.364;2023-10-19T03:13:53;16.93;;;13.73;;
15258;SDS011;34462;51.368;12.364;2023-10-19T03:16:23;16.77;;;13.73;;
15258;SDS011;34462;51.368;12.364;2023-10-19T03:18:53;17.00;;;13.77;;
15258;SDS011;34462;51.368;12.364;2023-10-19T03:21:21;16.90;;;14.23;;
15258;SDS011;34462;51.368;12.364;2023-10-19T03:23:53;16.10;;;13.70;;
15258;SDS011;34462;51.368;12.364;2023-10-19T03:26:22;17.23;;;14.63;;
15258;SDS011;34462;51.368;12.364;2023-10-19T03:28:57;17.63;;;14.23;;
15258;SDS011;34462;51.368;12.364;2023-10-19T03:31:29;15.37;;;13.70;;
15258;SDS011;34462;51.368;12.364;2023-10-19T03:33:59;17.80;;;14.60;;
15258;SDS011;34462;51.368;12.364;2023-10-19T03:36:31;20.43;;;14.90;;
15258;SDS011;34462;51.368;12.364;2023-10-19T03:38:59;18.17;;;14.60;;
15258;SDS011;34462;51.368;12.364;2023-10-19T03:41:39;17.43;;;14.57;;
15258;SDS011;34462;51.368;12.364;2023-10-19T03:44:10;17.90;;;14.70;;
15258;SDS011;34462;51.368;12.364;2023-10-19T03:46:45;18.43;;;14.97;;
15258;SDS011;34462;51.368;12.364;2023-10-19T03:49:24;18.43;;;15.17;;
15258;SDS011;34462;51.368;12.364;2023-10-19T03:51:59;17.23;;;14.60;;
15258;SDS011;34462;51.368;12.364;2023-10-19T03:54:46;19.23;;;15.17;;
15258;SDS011;34462;51.368;12.364;2023-10-19T03:57:17;19.50;;;16.30;;
15258;SDS011;34462;51.368;12.364;2023-10-19T03:59:51;17.70;;;15.77;;
15258;SDS011;34462;51.368;12.364;2023-10-19T04:02:23;17.80;;;15.13;;
15258;SDS011;34462;51.368;12.364;2023-10-19T04:04:53;19.57;;;15.67;;
15258;SDS011;34462;51.368;12.364;2023-10-19T04:07:23;18.27;;;15.27;;
15258;SDS011;34462;51.368;12.364;2023-10-19T04:09:53;20.20;;;14.73;;
15258;SDS011;34462;51.368;12.364;2023-10-19T04:12:37;18.47;;;15.80;;
15258;SDS011;34462;51.368;12.364;2023-10-19T04:15:09;20.13;;;15.43;;
15258;SDS011;34462;51.368;12.364;2023-10-19T04:17:41;21.47;;;16.27;;
15258;SDS011;34462;51.368;12.364;2023-10-19T04:20:09;21.93;;;17.03;;
15258;SDS011;34462;51.368;12.364;2023-10-19T04:22:54;19.73;;;16.20;;
15258;SDS011;34462;51.368;12.364;2023-10-19T04:25:24;20.47;;;16.13;;
15258;SDS011;34462;51.368;12.364;2023-10-19T04:27:54;22.50;;;16.63;;
15258;SDS011;34462;51.368;12.364;2023-10-19T04:30:23;23.40;;;16.60;;
15258;SDS011;34462;51.368;12.364;2023-10-19T04:32:53;19.00;;;15.70;;
15258;SDS011;34462;51.368;12.364;2023-10-19T04:35:24;19.43;;;16.10;;
15258;SDS011;34462;51.368;12.364;2023-10-19T04:37:56;22.53;;;16.43;;
15258;SDS011;34462;51.368;12.364;2023-10-19T04:40:26;20.27;;;16.50;;
15258;SDS011;34462;51.368;12.364;2023-10-19T04:42:56;23.23;;;17.30;;
15258;SDS011;34462;51.368;12.364;2023-10-19T04:45:26;21.63;;;16.93;;
15258;SDS011;34462;51.368;12.364;2023-10-19T04:47:56;23.03;;;18.90;;
15258;SDS011;34462;51.368;12.364;2023-10-19T04:50:24;21.20;;;16.80;;
15258;SDS011;34462;51.368;12.364;2023-10-19T04:52:52;22.23;;;16.73;;
15258;SDS011;34462;51.368;12.364;2023-10-19T04:55:21;22.77;;;16.77;;
15258;SDS011;34462;51.368;12.364;2023-10-19T04:57:49;19.60;;;16.23;;
15258;SDS011;34462;51.368;12.364;2023-10-19T05:00:19;22.20;;;16.53;;
15258;SDS011;34462;51.368;12.364;2023-10-19T05:02:47;20.67;;;16.93;;
15258;SDS011;34462;51.368;12.364;2023-10-19T05:05:18;22.03;;;17.37;;
15258;SDS011;34462;51.368;12.364;2023-10-19T05:07:47;23.43;;;17.57;;
15258;SDS011;34462;51.368;12.364;2023-10-19T05:10:15;22.23;;;17.33;;
15258;SDS011;34462;51.368;12.364;2023-10-19T05:12:46;23.53;;;17.40;;
15258;SDS011;34462;51.368;12.364;2023-10-19T05:15:14;23.00;;;17.80;;
15258;SDS011;34462;51.368;12.364;2023-10-19T05:17:46;24.60;;;17.57;;
15258;SDS011;34462;51.368;12.364;2023-10-19T05:20:14;25.17;;;16.63;;
15258;SDS011;34462;51.368;12.364;2023-10-19T05:22:42;25.43;;;18.07;;
15258;SDS011;34462;51.368;12.364;2023-10-19T05:25:11;26.13;;;18.60;;
15258;SDS011;34462;51.368;12.364;2023-10-19T05:27:39;24.50;;;18.03;;
15258;SDS011;34462;51.368;12.364;2023-10-19T05:30:09;23.80;;;17.83;;
15258;SDS011;34462;51.368;12.364;2023-10-19T05:32:38;22.93;;;17.30;;
15258;SDS011;34462;51.368;12.364;2023-10-19T05:35:08;23.07;;;18.20;;
15258;SDS011;34462;51.368;12.364;2023-10-19T05:37:39;23.93;;;18.43;;
15258;SDS011;34462;51.368;12.364;2023-10-19T05:40:08;21.80;;;17.47;;
15258;SDS011;34462;51.368;12.364;2023-10-19T05:42:41;25.10;;;18.77;;
15258;SDS011;34462;51.368;12.364;2023-10-19T05:45:09;20.90;;;16.00;;
15258;SDS011;34462;51.368;12.364;2023-10-19T05:47:39;20.97;;;16.77;;
15258;SDS011;34462;51.368;12.364;2023-10-19T05:50:09;20.17;;;16.43;;
15258;SDS011;34462;51.368;12.364;2023-10-19T05:52:40;21.23;;;17.17;;
15258;SDS011;34462;51.368;12.364;2023-10-19T05:55:09;21.30;;;17.10;;
15258;SDS011;34462;51.368;12.364;2023-10-19T05:57:38;21.97;;;16.90;;
15258;SDS011;34462;51.368;12.364;2023-10-19T06:00:08;22.27;;;17.03;;
15258;SDS011;34462;51.368;12.364;2023-10-19T06:02:41;21.23;;;16.57;;
15258;SDS011;34462;51.368;12.364;2023-10-19T06:05:13;21.80;;;17.10;;
15258;SDS011;34462;51.368;12.364;2023-10-19T06:07:43;21.47;;;17.00;;
15258;SDS011;34462;51.368;12.364;2023-10-19T06:10:12;23.60;;;17.47;;
15258;SDS011;34462;51.368;12.364;2023-10-19T06:12:45;22.63;;;17.53;;
15258;SDS011;34462;51.368;12.364;2023-10-19T06:15:16;21.33;;;16.53;;
15258;SDS011;34462;51.368;12.364;2023-10-19T06:17:47;23.43;;;17.93;;
15258;SDS011;34462;51.368;12.364;2023-10-19T06:20:17;23.53;;;17.97;;
15258;SDS011;34462;51.368;12.364;2023-10-19T06:22:51;24.57;;;17.17;;
15258;SDS011;34462;51.368;12.364;2023-10-19T06:25:22;22.10;;;17.47;;
15258;SDS011;34462;51.368;12.364;2023-10-19T06:27:52;22.90;;;17.27;;
15258;SDS011;34462;51.368;12.364;2023-10-19T06:30:24;22.47;;;17.27;;
15258;SDS011;34462;51.368;12.364;2023-10-19T06:32:53;22.23;;;17.03;;
15258;SDS011;34462;51.368;12.364;2023-10-19T06:35:24;22.47;;;17.77;;
15258;SDS011;34462;51.368;12.364;2023-10-19T06:37:53;22.60;;;18.10;;
15258;SDS011;34462;51.368;12.364;2023-10-19T06:40:22;23.70;;;18.13;;
15258;SDS011;34462;51.368;12.364;2023-10-19T06:42:51;25.07;;;18.40;;
15258;SDS011;34462;51.368;12.364;2023-10-19T06:45:22;21.53;;;17.50;;
15258;SDS011;34462;51.368;12.364;2023-10-19T06:47:52;23.37;;;17.83;;
15258;SDS011;34462;51.368;12.364;2023-10-19T06:50:21;24.87;;;19.07;;
15258;SDS011;34462;51.368;12.364;2023-10-19T06:52:53;21.93;;;17.87;;
15258;SDS011;34462;51.368;12.364;2023-10-19T06:55:21;24.77;;;17.93;;
15258;SDS011;34462;51.368;12.364;2023-10-19T06:57:51;22.67;;;18.73;;
15258;SDS011;34462;51.368;12.364;2023-10-19T07:00:23;24.13;;;18.20;;
15258;SDS011;34462;51.368;12.364;2023-10-19T07:02:54;25.03;;;18.90;;
15258;SDS011;34462;51.368;12.364;2023-10-19T07:05:26;24.03;;;18.90;;
15258;SDS011;34462;51.368;12.364;2023-10-19T07:07:58;24.87;;;18.70;;
15258;SDS011;34462;51.368;12.364;2023-10-19T07:10:28;27.73;;;19.73;;
15258;SDS011;34462;51.368;12.364;2023-10-19T07:12:56;23.70;;;18.13;;
15258;SDS011;34462;51.368;12.364;2023-10-19T07:15:25;23.30;;;18.07;;
15258;SDS011;34462;51.368;12.364;2023-10-19T07:17:56;24.27;;;19.17;;
15258;SDS011;34462;51.368;12.364;2023-10-19T07:20:25;23.93;;;17.83;;
15258;SDS011;34462;51.368;12.364;2023-10-19T07:22:53;24.23;;;18.83;;
15258;SDS011;34462;51.368;12.364;2023-10-19T07:25:24;23.73;;;18.53;;
15258;SDS011;34462;51.368;12.364;2023-10-19T07:27:52;23.77;;;18.97;;
15258;SDS011;34462;51.368;12.364;2023-10-19T07:30:21;24.07;;;18.47;;
15258;SDS011;34462;51.368;12.364;2023-10-19T07:32:53;24.47;;;19.47;;
15258;SDS011;34462;51.368;12.364;2023-10-19T07:35:25;25.17;;;18.80;;
15258;SDS011;34462;51.368;12.364;2023-10-19T07:37:54;25.27;;;19.50;;
15258;SDS011;34462;51.368;12.364;2023-10-19T07:40:25;26.13;;;18.40;;
15258;SDS011;34462;51.368;12.364;2023-10-19T07:42:54;24.70;;;20.17;;
15258;SDS011;34462;51.368;12.364;2023-10-19T07:45:22;23.93;;;18.97;;
15258;SDS011;34462;51.368;12.364;2023-10-19T07:47:51;23.73;;;18.83;;
15258;SDS011;34462;51.368;12.364;2023-10-19T07:50:20;23.30;;;18.97;;
15258;SDS011;34462;51.368;12.364;2023-10-19T07:52:49;23.10;;;18.53;;
15258;SDS011;34462;51.368;12.364;2023-10-19T07:55:20;21.60;;;17.30;;
15258;SDS011;34462;51.368;12.364;2023-10-19T07:57:51;23.37;;;18.13;;
15258;SDS011;34462;51.368;12.364;2023-10-19T08:00:22;27.67;;;19.97;;
15258;SDS011;34462;51.368;12.364;2023-10-19T08:02:51;26.30;;;19.33;;
15258;SDS011;34462;51.368;12.364;2023-10-19T08:05:21;25.13;;;19.97;;
15258;SDS011;34462;51.368;12.364;2023-10-19T08:07:50;24.80;;;20.00;;
15258;SDS011;34462;51.368;12.364;2023-10-19T08:10:18;27.27;;;20.37;;
15258;SDS011;34462;51.368;12.364;2023-10-19T08:12:48;23.83;;;19.77;;
15258;SDS011;34462;51.368;12.364;2023-10-19T08:15:19;25.13;;;19.33;;
15258;SDS011;34462;51.368;12.364;2023-10-19T08:17:49;23.90;;;19.20;;
15258;SDS011;34462;51.368;12.364;2023-10-19T08:20:20;25.83;;;20.23;;
15258;SDS011;34462;51.368;12.364;2023-10-19T08:22:57;25.57;;;19.40;;
15258;SDS011;34462;51.368;12.364;2023-10-19T08:25:28;24.60;;;18.93;;
15258;SDS011;34462;51.368;12.364;2023-10-19T08:28:00;21.20;;;16.67;;
15258;SDS011;34462;51.368;12.364;2023-10-19T08:30:29;19.60;;;16.97;;
15258;SDS011;34462;51.368;12.364;2023-10-19T08:32:57;21.47;;;17.53;;
15258;SDS011;34462;51.368;12.364;2023-10-19T08:35:26;20.47;;;17.57;;
15258;SDS011;34462;51.368;12.364;2023-10-19T08:37:54;20.67;;;17.37;;
15258;SDS011;34462;51.368;12.364;2023-10-19T08:40:24;18.40;;;16.40;;
15258;SDS011;34462;51.368;12.364;2023-10-19T08:42:54;19.80;;;17.10;;
15258;SDS011;34462;51.368;12.364;2023-10-19T08:45:23;21.67;;;16.90;;
15258;SDS011;34462;51.368;12.364;2023-10-19T08:47:54;19.83;;;17.27;;
15258;SDS011;34462;51.368;12.364;2023-10-19T08:50:26;18.90;;;16.20;;
15258;SDS011;34462;51.368;12.364;2023-10-19T08:52:57;21.07;;;17.00;;
15258;SDS011;34462;51.368;12.364;2023-10-19T08:55:28;18.73;;;16.47;;
15258;SDS011;34462;51.368;12.364;2023-10-19T08:58:10;19.17;;;16.47;;
15258;SDS011;34462;51.368;12.364;2023-10-19T09:00:43;18.97;;;15.67;;
15258;SDS011;34462;51.368;12.364;2023-10-19T09:03:17;18.33;;;16.30;;
15258;SDS011;34462;51.368;12.364;2023-10-19T09:05:46;20.57;;;16.40;;
15258;SDS011;34462;51.368;12.364;2023-10-19T09:08:15;19.43;;;16.23;;
15258;SDS011;34462;51.368;12.364;2023-10-19T09:10:46;18.10;;;16.20;;
15258;SDS011;34462;51.368;12.364;2023-10-19T09:13:18;19.00;;;15.37;;
15258;SDS011;34462;51.368;12.364;2023-10-19T09:15:49;16.33;;;14.47;;
15258;SDS011;34462;51.368;12.364;2023-10-19T09:18:22;16.93;;;15.10;;
15258;SDS011;34462;51.368;12.364;2023-10-19T09:20:54;17.50;;;15.07;;
15258;SDS011;34462;51.368;12.364;2023-10-19T09:23:29;18.47;;;14.63;;
15258;SDS011;34462;51.368;12.364;2023-10-19T09:25:58;15.93;;;13.47;;
15258;SDS011;34462;51.368;12.364;2023-10-19T09:28:30;15.77;;;14.07;;
15258;SDS011;34462;51.368;12.364;2023-10-19T09:31:01;16.00;;;14.30;;
15258;SDS011;34462;51.368;12.364;2023-10-19T09:33:32;15.27;;;13.63;;
15258;SDS011;34462;51.368;12.364;2023-10-19T09:36:02;17.53;;;14.73;;
15258;SDS011;34462;51.368;12.364;2023-10-19T09:38:39;15.37;;;13.77;;
15258;SDS011;34462;51.368;12.364;2023-10-19T09:41:11;15.70;;;13.27;;
15258;SDS011;34462;51.368;12.364;2023-10-19T09:43:41;14.47;;;12.57;;
15258;SDS011;34462;51.368;12.364;2023-10-19T09:46:15;15.30;;;13.60;;
15258;SDS011;34462;51.368;12.364;2023-10-19T09:48:51;15.50;;;13.83;;
15258;SDS011;34462;51.368;12.364;2023-10-19T09:51:20;14.53;;;13.03;;
15258;SDS011;34462;51.368;12.364;2023-10-19T09:53:52;14.23;;;12.82;;
15258;SDS011;34462;51.368;12.364;2023-10-19T09:56:30;15.55;;;13.90;;
15258;SDS011;34462;51.368;12.364;2023-10-19T09:59:05;14.47;;;13.07;;
15258;SDS011;34462;51.368;12.364;2023-10-19T10:04:35;14.98;;;13.48;;
15258;SDS011;34462;51.368;12.364;2023-10-19T10:07:04;14.63;;;13.13;;
15258;SDS011;34462;51.368;12.364;2023-10-19T10:09:34;14.45;;;13.05;;
15258;SDS011;34462;51.368;12.364;2023-10-19T10:12:16;14.23;;;12.73;;
15258;SDS011;34462;51.368;12.364;2023-10-19T10:15:00;14.60;;;13.00;;
15258;SDS011;34462;51.368;12.364;2023-10-19T10:17:34;14.57;;;13.07;;
15258;SDS011;34462;51.368;12.364;2023-10-19T10:23:17;13.73;;;12.13;;
15258;SDS011;34462;51.368;12.364;2023-10-19T10:25:51;13.65;;;12.25;;
15258;SDS011;34462;51.368;12.364;2023-10-19T10:28:20;14.07;;;12.68;;
15258;SDS011;34462;51.368;12.364;2023-10-19T10:31:09;16.13;;;14.07;;
15258;SDS011;34462;51.368;12.364;2023-10-19T10:33:44;16.25;;;13.90;;
15258;SDS011;34462;51.368;12.364;2023-10-19T10:36:16;14.43;;;13.02;;
15258;SDS011;34462;51.368;12.364;2023-10-19T10:38:45;14.32;;;12.85;;
15258;SDS011;34462;51.368;12.364;2023-10-19T10:41:20;15.88;;;13.13;;
15258;SDS011;34462;51.368;12.364;2023-10-19T10:43:51;14.63;;;13.13;;
15258;SDS011;34462;51.368;12.364;2023-10-19T10:46:22;14.13;;;12.45;;
15258;SDS011;34462;51.368;12.364;2023-10-19T10:48:52;15.65;;;14.02;;
15258;SDS011;34462;51.368;12.364;2023-10-19T10:51:23;14.52;;;13.02;;
15258;SDS011;34462;51.368;12.364;2023-10-19T10:53:54;15.38;;;13.85;;
15258;SDS011;34462;51.368;12.364;2023-10-19T10:56:23;15.00;;;13.43;;
15258;SDS011;34462;51.368;12.364;2023-10-19T10:58:52;16.20;;;14.57;;
15258;SDS011;34462;51.368;12.364;2023-10-19T11:01:28;16.10;;;14.45;;
15258;SDS011;34462;51.368;12.364;2023-10-19T11:04:05;17.02;;;14.38;;
15258;SDS011;34462;51.368;12.364;2023-10-19T11:06:46;15.77;;;14.20;;
15258;SDS011;34462;51.368;12.364;2023-10-19T11:09:16;16.45;;;14.63;;
15258;SDS011;34462;51.368;12.364;2023-10-19T11:11:45;15.88;;;14.18;;
15258;SDS011;34462;51.368;12.364;2023-10-19T11:14:15;15.27;;;13.68;;
15258;SDS011;34462;51.368;12.364;2023-10-19T11:16:43;14.98;;;13.18;;
15258;SDS011;34462;51.368;12.364;2023-10-19T11:19:12;17.60;;;14.57;;
15258;SDS011;34462;51.368;12.364;2023-10-19T11:21:51;15.35;;;13.77;;
15258;SDS011;34462;51.368;12.364;2023-10-19T11:24:25;15.80;;;14.30;;
15258;SDS011;34462;51.368;12.364;2023-10-19T11:26:58;16.13;;;14.52;;
15258;SDS011;34462;51.368;12.364;2023-10-19T11:29:26;15.73;;;14.02;;
15258;SDS011;34462;51.368;12.364;2023-10-19T11:31:58;14.60;;;12.95;;
15258;SDS011;34462;51.368;12.364;2023-10-19T11:34:27;13.65;;;12.35;;
15258;SDS011;34462;51.368;12.364;2023-10-19T11:36:58;15.27;;;13.68;;
15258;SDS011;34462;51.368;12.364;2023-10-19T11:39:27;15.57;;;13.43;;
15258;SDS011;34462;51.368;12.364;2023-10-19T11:41:55;14.30;;;12.75;;
15258;SDS011;34462;51.368;12.364;2023-10-19T11:44:24;15.75;;;14.18;;
15258;SDS011;34462;51.368;12.364;2023-10-19T11:46:52;14.27;;;12.88;;
15258;SDS011;34462;51.368;12.364;2023-10-19T11:49:20;15.55;;;14.02;;
15258;SDS011;34462;51.368;12.364;2023-10-19T11:51:52;15.05;;;13.40;;
15258;SDS011;34462;51.368;12.364;2023-10-19T11:54:22;15.45;;;13.90;;
15258;SDS011;34462;51.368;12.364;2023-10-19T11:56:51;15.70;;;14.10;;
15258;SDS011;34462;51.368;12.364;2023-10-19T11:59:20;14.15;;;12.75;;
15258;SDS011;34462;51.368;12.364;2023-10-19T12:01:49;14.23;;;12.82;;
15258;SDS011;34462;51.368;12.364;2023-10-19T12:04:18;15.20;;;13.00;;
15258;SDS011;34462;51.368;12.364;2023-10-19T12:06:46;16.42;;;14.82;;
15258;SDS011;34462;51.368;12.364;2023-10-19T12:09:14;15.25;;;13.73;;
15258;SDS011;34462;51.368;12.364;2023-10-19T12:11:44;15.00;;;13.43;;
15258;SDS011;34462;51.368;12.364;2023-10-19T12:14:14;15.95;;;14.27;;
15258;SDS011;34462;51.368;12.364;2023-10-19T12:16:42;15.68;;;13.90;;
15258;SDS011;34462;51.368;12.364;2023-10-19T12:19:12;15.30;;;13.70;;
15258;SDS011;34462;51.368;12.364;2023-10-19T12:21:42;16.30;;;14.52;;
15258;SDS011;34462;51.368;12.364;2023-10-19T12:24:10;16.50;;;14.80;;
15258;SDS011;34462;51.368;12.364;2023-10-19T12:26:39;15.55;;;14.05;;
15258;SDS011;34462;51.368;12.364;2023-10-19T12:29:09;16.20;;;14.60;;
15258;SDS011;34462;51.368;12.364;2023-10-19T12:31:38;16.55;;;14.95;;
15258;SDS011;34462;51.368;12.364;2023-10-19T12:34:07;18.52;;;16.05;;
15258;SDS011;34462;51.368;12.364;2023-10-19T12:36:38;16.60;;;14.88;;
15258;SDS011;34462;51.368;12.364;2023-10-19T12:39:07;15.48;;;13.95;;
15258;SDS011;34462;51.368;12.364;2023-10-19T12:41:41;17.58;;;15.43;;
15258;SDS011;34462;51.368;12.364;2023-10-19T12:44:11;16.73;;;15.02;;
15258;SDS011;34462;51.368;12.364;2023-10-19T12:46:41;16.92;;;15.20;;
15258;SDS011;34462;51.368;12.364;2023-10-19T12:49:10;18.38;;;16.58;;
15258;SDS011;34462;51.368;12.364;2023-10-19T12:51:42;17.35;;;15.55;;
15258;SDS011;34462;51.368;12.364;2023-10-19T12:54:11;16.20;;;14.50;;
15258;SDS011;34462;51.368;12.364;2023-10-19T12:56:40;14.93;;;13.48;;
15258;SDS011;34462;51.368;12.364;2023-10-19T12:59:08;15.25;;;13.65;;
15258;SDS011;34462;51.368;12.364;2023-10-19T13:01:39;16.17;;;14.57;;
15258;SDS011;34462;51.368;12.364;2023-10-19T13:04:07;15.48;;;13.98;;
15258;SDS011;34462;51.368;12.364;2023-10-19T13:06:43;16.30;;;14.63;;
15258;SDS011;34462;51.368;12.364;2023-10-19T13:09:13;16.10;;;14.48;;
15258;SDS011;34462;51.368;12.364;2023-10-19T13:11:48;16.02;;;14.32;;
15258;SDS011;34462;51.368;12.364;2023-10-19T13:14:18;18.27;;;16.38;;
15258;SDS011;34462;51.368;12.364;2023-10-19T13:16:48;19.45;;;17.10;;
15258;SDS011;34462;51.368;12.364;2023-10-19T13:19:18;17.50;;;15.70;;
15258;SDS011;34462;51.368;12.364;2023-10-19T13:21:50;18.13;;;16.20;;
15258;SDS011;34462;51.368;12.364;2023-10-19T13:24:18;15.18;;;13.63;;
15258;SDS011;34462;51.368;12.364;2023-10-19T13:26:48;16.98;;;15.32;;
15258;SDS011;34462;51.368;12.364;2023-10-19T13:29:17;17.23;;;15.43;;
15258;SDS011;34462;51.368;12.364;2023-10-19T13:31:48;19.10;;;17.02;;
15258;SDS011;34462;51.368;12.364;2023-10-19T13:34:17;17.88;;;15.98;;
15258;SDS011;34462;51.368;12.364;2023-10-19T13:36:45;20.75;;;17.15;;
15258;SDS011;34462;51.368;12.364;2023-10-19T13:39:13;18.80;;;16.80;;
15258;SDS011;34462;51.368;12.364;2023-10-19T13:41:43;16.88;;;15.18;;
15258;SDS011;34462;51.368;12.364;2023-10-19T13:44:11;20.77;;;18.58;;
15258;SDS011;34462;51.368;12.364;2023-10-19T13:46:40;16.52;;;14.82;;
15258;SDS011;34462;51.368;12.364;2023-10-19T13:49:10;19.27;;;16.60;;
15258;SDS011;34462;51.368;12.364;2023-10-19T13:51:38;20.10;;;17.98;;
15258;SDS011;34462;51.368;12.364;2023-10-19T13:54:06;23.55;;;20.55;;
15258;SDS011;34462;51.368;12.364;2023-10-19T13:56:34;19.02;;;16.95;;
15258;SDS011;34462;51.368;12.364;2023-10-19T13:59:03;22.42;;;20.02;;
15258;SDS011;34462;51.368;12.364;2023-10-19T14:01:31;21.02;;;18.83;;
15258;SDS011;34462;51.368;12.364;2023-10-19T14:04:00;23.92;;;21.48;;
15258;SDS011;34462;51.368;12.364;2023-10-19T14:06:30;22.98;;;20.50;;
15258;SDS011;34462;51.368;12.364;2023-10-19T14:08:58;22.30;;;19.90;;
15258;SDS011;34462;51.368;12.364;2023-10-19T14:11:26;21.23;;;18.95;;
15258;SDS011;34462;51.368;12.364;2023-10-19T14:13:54;25.67;;;22.88;;
15258;SDS011;34462;51.368;12.364;2023-10-19T14:16:23;25.10;;;21.70;;
15258;SDS011;34462;51.368;12.364;2023-10-19T14:18:52;23.27;;;20.58;;
15258;SDS011;34462;51.368;12.364;2023-10-19T14:21:22;22.35;;;19.95;;
15258;SDS011;34462;51.368;12.364;2023-10-19T14:23:54;24.35;;;21.65;;
15258;SDS011;34462;51.368;12.364;2023-10-19T14:26:23;24.83;;;21.67;;
15258;SDS011;34462;51.368;12.364;2023-10-19T14:28:51;26.35;;;23.48;;
15258;SDS011;34462;51.368;12.364;2023-10-19T14:31:20;26.52;;;22.55;;
15258;SDS011;34462;51.368;12.364;2023-10-19T14:33:48;27.45;;;22.75;;
15258;SDS011;34462;51.368;12.364;2023-10-19T14:36:17;24.70;;;22.10;;